Time;durP1;ratioP1;P1;durP2;ratioP2;P2;SDS_P1;SDS_P2;PMS_P1;PMS_P2;Temp;Humidity;BMP_temperature;BMP_pressure;BME280_temperature;BME280_humidity;BME280_pressure;Samples;Min_cycle;Max_cycle;Signal;HPM_P1;HPM_P2
2023/02/17 00:08:44;;;;;;;24.13;11.88;;;6.60;99.90;;;;;;20642797;28;20034;-76
2023/02/17 00:18:46;;;;;;;30.63;13.32;;;6.60;99.90;;;;;;20696924;28;20437;-76
2023/02/17 00:28:47;;;;;;;25.35;12.00;;;6.70;99.90;;;;;;20692753;28;20038;-76
2023/02/17 00:38:49;;;;;;;22.23;10.57;;;6.70;99.90;;;;;;20683522;28;20030;-76
2023/02/17 00:48:50;;;;;;;29.90;12.60;;;6.70;99.90;;;;;;20640141;28;20017;-76
2023/02/17 00:58:51;;;;;;;;;;;6.80;99.90;;;;;;20702180;28;20025;-77
2023/02/17 01:08:52;;;;;;;25.30;12.60;;;6.80;99.90;;;;;;20689987;28;20308;-77
2023/02/17 01:18:55;;;;;;;29.17;12.10;;;6.90;99.90;;;;;;20699164;28;20068;-77
2023/02/17 01:28:56;;;;;;;;;;;6.90;99.90;;;;;;20709359;28;20493;-77
2023/02/17 01:38:57;;;;;;;22.10;11.50;;;6.90;99.90;;;;;;20698293;28;20016;-76
2023/02/17 01:48:59;;;;;;;32.95;15.98;;;6.70;99.90;;;;;;20699176;28;20115;-77
2023/02/17 01:59:04;;;;;;;26.23;12.75;;;6.70;99.90;;;;;;20698163;28;20030;-77
2023/02/17 02:09:09;;;;;;;24.55;11.40;;;6.70;99.90;;;;;;20700677;28;20037;-77
2023/02/17 02:19:19;;;;;;;22.30;10.55;;;6.50;99.90;;;;;;20705499;28;20507;-75
2023/02/17 02:29:59;;;;;;;22.15;10.13;;;6.50;99.90;;;;;;20694666;28;20034;-75
2023/02/17 02:40:05;;;;;;;24.45;11.55;;;6.30;99.90;;;;;;20696170;28;20038;-75
2023/02/17 02:50:10;;;;;;;23.85;11.75;;;6.50;99.90;;;;;;20694848;28;20064;-75
2023/02/17 03:00:14;;;;;;;25.42;11.57;;;6.60;99.90;;;;;;20709915;28;20057;-75
2023/02/17 03:10:15;;;;;;;29.15;12.80;;;6.50;99.90;;;;;;20674911;28;20455;-76
2023/02/17 03:20:16;;;;;;;22.45;12.50;;;6.40;99.90;;;;;;20695001;28;20037;-76
2023/02/17 03:30:18;;;;;;;23.40;11.27;;;6.50;99.90;;;;;;20737636;28;20033;-76
2023/02/17 03:40:19;;;;;;;21.40;10.13;;;6.50;99.90;;;;;;20727549;28;20497;-76
2023/02/17 03:50:19;;;;;;;22.13;11.65;;;6.40;99.90;;;;;;20706374;28;20070;-76
2023/02/17 04:00:20;;;;;;;21.93;10.30;;;6.50;99.90;;;;;;20696303;28;20022;-76
2023/02/17 04:10:24;;;;;;;27.50;11.60;;;6.40;99.90;;;;;;20728139;28;20030;-76
2023/02/17 04:20:25;;;;;;;27.63;12.87;;;6.30;99.90;;;;;;20683352;28;20076;-76
2023/02/17 04:30:26;;;;;;;24.50;12.47;;;6.20;99.90;;;;;;20677531;28;20688;-76
2023/02/17 04:40:26;;;;;;;28.60;12.47;;;6.30;99.90;;;;;;20693105;28;20031;-76
2023/02/17 04:50:27;;;;;;;23.43;12.13;;;6.40;99.90;;;;;;20707858;28;20030;-76
2023/02/17 05:00:29;;;;;;;22.27;12.40;;;6.40;99.90;;;;;;20686296;28;20038;-76
2023/02/17 05:10:30;;;;;;;31.52;15.00;;;6.50;99.90;;;;;;20673067;28;20282;-79
2023/02/17 05:20:31;;;;;;;30.10;13.80;;;6.40;99.90;;;;;;20716876;28;20058;-80
2023/02/17 05:30:31;;;;;;;26.10;12.93;;;6.30;99.90;;;;;;20691670;28;20034;-80
2023/02/17 05:40:32;;;;;;;25.17;12.13;;;6.50;99.90;;;;;;20675642;28;20040;-77
2023/02/17 05:50:33;;;;;;;28.87;12.53;;;6.70;99.90;;;;;;20707753;28;20030;-78
2023/02/17 06:00:36;;;;;;;24.35;11.45;;;6.50;99.90;;;;;;20691779;28;20660;-80
2023/02/17 06:10:37;;;;;;;21.73;10.17;;;6.50;99.90;;;;;;20689492;28;20036;-79
2023/02/17 06:20:38;;;;;;;25.20;11.43;;;6.40;99.90;;;;;;20658376;28;20102;-78
2023/02/17 06:30:39;;;;;;;19.77;10.60;;;6.50;99.90;;;;;;20648171;28;20081;-76
2023/02/17 06:40:40;;;;;;;21.40;10.65;;;6.60;99.90;;;;;;20629792;28;20118;-75
2023/02/17 06:50:41;;;;;;;16.23;9.27;;;6.50;99.90;;;;;;20648767;28;20019;-76
2023/02/17 07:00:41;;;;;;;16.80;9.27;;;6.50;99.90;;;;;;20664371;28;20113;-77
2023/02/17 07:10:42;;;;;;;20.57;9.83;;;6.60;99.90;;;;;;20680085;28;20087;-77
2023/02/17 07:20:43;;;;;;;22.50;10.50;;;6.80;99.90;;;;;;20705772;28;20652;-77
2023/02/17 07:30:44;;;;;;;17.00;9.53;;;7.00;99.90;;;;;;20708899;28;20057;-77
2023/02/17 07:40:44;;;;;;;25.37;9.77;;;7.20;99.90;;;;;;20680524;28;20550;-77
2023/02/17 07:50:45;;;;;;;24.20;12.77;;;7.50;99.90;;;;;;20680343;28;20080;-77
2023/02/17 08:00:46;;;;;;;24.63;11.80;;;7.70;99.90;;;;;;20690894;28;20030;-76
2023/02/17 08:21:17;;;;;;;28.50;14.38;;;7.70;99.90;;;;;;20693488;28;20492;-77
2023/02/17 08:31:29;;;;;;;20.80;9.60;;;7.90;99.90;;;;;;20659747;28;20034;-76
2023/02/17 08:41:36;;;;;;;23.75;12.15;;;8.20;99.90;;;;;;20692268;28;20070;-75
2023/02/17 08:51:37;;;;;;;25.27;11.98;;;8.40;99.90;;;;;;20703072;28;20046;-76
2023/02/17 09:01:40;;;;;;;17.60;8.93;;;8.70;99.90;;;;;;20701008;28;20030;-76
2023/02/17 09:11:42;;;;;;;20.80;8.13;;;9.30;99.90;;;;;;20706014;28;20096;-76
2023/02/17 09:21:42;;;;;;;12.98;6.82;;;9.80;99.90;;;;;;20700750;28;20112;-76
2023/02/17 09:31:44;;;;;;;16.03;6.60;;;10.30;99.90;;;;;;20696107;28;20092;-75
2023/02/17 09:41:50;;;;;;;15.80;5.72;;;10.80;99.90;;;;;;20698413;28;20066;-76
2023/02/17 09:52:08;;;;;;;11.82;5.05;;;11.30;99.90;;;;;;20691561;28;20033;-76
2023/02/17 10:02:28;;;;;;;6.35;3.70;;;11.40;99.90;;;;;;20697784;28;20038;-76
2023/02/17 10:12:38;;;;;;;11.20;3.47;;;11.80;99.90;;;;;;20709014;28;20129;-76
2023/02/17 10:22:43;;;;;;;9.05;2.90;;;12.00;99.90;;;;;;20693402;28;20030;-76
2023/02/17 10:33:11;;;;;;;9.82;3.72;;;12.00;99.90;;;;;;20696115;28;20112;-76
2023/02/17 10:43:20;;;;;;;15.57;3.80;;;12.40;99.90;;;;;;20702236;28;20033;-75
2023/02/17 10:53:24;;;;;;;13.52;3.80;;;12.60;99.90;;;;;;20700994;28;20088;-76
2023/02/17 11:03:28;;;;;;;7.90;2.45;;;12.70;99.90;;;;;;20703401;28;20022;-76
2023/02/17 11:13:36;;;;;;;4.47;2.70;;;12.60;99.90;;;;;;20709366;28;20069;-76
2023/02/17 11:24:04;;;;;;;5.82;3.10;;;12.40;99.90;;;;;;20713488;28;20030;-76
2023/02/17 11:34:13;;;;;;;12.90;3.03;;;12.30;99.90;;;;;;20709159;28;20113;-76
2023/02/17 11:44:25;;;;;;;9.52;3.35;;;12.60;99.90;;;;;;20707754;28;20402;-76
2023/02/17 11:54:50;;;;;;;13.75;4.90;;;12.00;99.90;;;;;;20707264;28;20452;-76
2023/02/17 12:05:09;;;;;;;9.18;4.22;;;11.50;99.90;;;;;;20707690;28;20038;-76
2023/02/17 12:15:41;;;;;;;11.38;5.55;;;11.20;99.90;;;;;;20710597;28;20041;-76
2023/02/17 12:25:54;;;;;;;10.32;4.75;;;11.20;99.90;;;;;;20687611;28;20088;-75
2023/02/17 12:35:59;;;;;;;13.60;4.80;;;11.10;99.90;;;;;;20688901;28;20601;-76
2023/02/17 12:46:05;;;;;;;10.23;4.47;;;11.20;99.90;;;;;;20656589;28;20027;-75
2023/02/17 12:56:27;;;;;;;10.90;3.90;;;11.30;99.90;;;;;;20658870;28;20042;-76
2023/02/17 13:06:35;;;;;;;11.80;4.43;;;11.50;99.90;;;;;;20724123;28;20117;-76
2023/02/17 13:16:44;;;;;;;8.23;3.38;;;11.50;99.90;;;;;;20711631;28;20366;-76
2023/02/17 13:26:45;;;;;;;6.35;3.17;;;11.50;99.90;;;;;;20718719;28;20026;-76
2023/02/17 13:36:46;;;;;;;5.83;3.40;;;11.60;99.90;;;;;;20726278;28;20084;-76
2023/02/17 13:46:47;;;;;;;7.83;3.80;;;11.60;99.90;;;;;;20670715;28;20034;-76
2023/02/17 13:56:52;;;;;;;6.80;3.58;;;11.70;99.90;;;;;;20738430;28;20116;-76
2023/02/17 14:06:56;;;;;;;8.38;3.67;;;11.60;99.90;;;;;;20686023;28;20038;-75
2023/02/17 14:17:07;;;;;;;6.20;3.38;;;11.50;99.90;;;;;;20664866;28;20367;-76
2023/02/17 14:27:12;;;;;;;6.07;3.00;;;11.70;99.90;;;;;;20671003;28;20038;-76
2023/02/17 14:37:23;;;;;;;7.50;3.60;;;11.60;99.90;;;;;;20613537;28;20034;-76
2023/02/17 14:47:24;;;;;;;7.40;3.37;;;11.70;99.90;;;;;;20668886;28;20493;-77
2023/02/17 14:57:26;;;;;;;6.80;3.13;;;11.80;99.90;;;;;;20667017;28;20085;-76
2023/02/17 15:07:27;;;;;;;11.52;3.38;;;12.00;99.90;;;;;;20650925;28;20034;-75
2023/02/17 15:17:28;;;;;;;10.03;3.53;;;11.90;99.90;;;;;;20666527;28;20394;-76
2023/02/17 15:27:29;;;;;;;14.33;4.73;;;11.80;99.90;;;;;;20630748;28;20031;-75
2023/02/17 15:37:29;;;;;;;9.50;4.43;;;11.80;99.90;;;;;;20636650;28;20035;-76
2023/02/17 15:47:30;;;;;;;17.50;4.33;;;11.70;99.90;;;;;;20662014;28;20036;-76
2023/02/17 15:57:31;;;;;;;11.33;4.40;;;11.80;99.90;;;;;;20666531;28;20045;-77
2023/02/17 16:07:32;;;;;;;10.30;4.80;;;11.80;99.90;;;;;;20633028;28;20057;-76
2023/02/17 16:17:32;;;;;;;22.30;5.63;;;11.60;99.90;;;;;;20621917;28;20061;-76
2023/02/17 16:27:33;;;;;;;17.80;6.10;;;11.60;99.90;;;;;;20652854;28;20018;-76
2023/02/17 16:37:34;;;;;;;24.27;8.43;;;11.50;99.90;;;;;;20649529;28;20042;-75
2023/02/17 16:47:35;;;;;;;23.80;10.23;;;11.40;99.90;;;;;;20648653;28;20038;-78
2023/02/17 16:57:36;;;;;;;73.57;22.38;;;11.40;99.90;;;;;;20636982;28;20062;-78
2023/02/17 17:07:39;;;;;;;14.07;5.07;;;11.40;99.90;;;;;;20646965;28;20525;-75
2023/02/17 17:17:57;;;;;;;14.27;6.13;;;11.30;99.90;;;;;;20651448;28;20049;-75
2023/02/17 17:27:58;;;;;;;11.95;5.20;;;11.20;99.90;;;;;;20649892;28;20117;-76
2023/02/17 17:37:58;;;;;;;8.20;5.07;;;11.20;99.90;;;;;;20660763;28;20121;-76
2023/02/17 17:47:59;;;;;;;10.90;6.03;;;11.10;99.90;;;;;;20706517;28;20037;-77
2023/02/17 17:58:00;;;;;;;11.83;5.33;;;11.20;99.90;;;;;;20682044;28;20084;-76
2023/02/17 18:08:01;;;;;;;18.83;5.67;;;11.00;99.90;;;;;;20677803;28;20110;-76
2023/02/17 18:18:02;;;;;;;14.27;4.90;;;11.10;99.90;;;;;;20684614;28;20029;-77
2023/02/17 18:28:03;;;;;;;10.07;5.63;;;11.00;99.90;;;;;;20617465;28;20053;-76
2023/02/17 18:38:04;;;;;;;13.93;6.17;;;10.90;99.90;;;;;;20591981;28;20031;-76
2023/02/17 18:48:04;;;;;;;9.63;5.67;;;10.70;99.90;;;;;;20668490;28;20054;-77
2023/02/17 18:58:05;;;;;;;18.53;6.40;;;10.60;99.90;;;;;;20726765;28;20527;-77
2023/02/17 19:08:07;;;;;;;10.77;5.20;;;10.50;99.90;;;;;;20742570;28;20025;-77
2023/02/17 19:18:08;;;;;;;18.08;6.07;;;10.30;99.90;;;;;;20685778;28;20054;-78
2023/02/17 19:28:09;;;;;;;13.27;5.60;;;10.20;99.90;;;;;;20682290;28;20026;-77
2023/02/17 19:38:10;;;;;;;16.07;5.83;;;10.00;99.90;;;;;;20650353;28;20031;-76
2023/02/17 19:48:10;;;;;;;10.77;4.57;;;9.80;99.90;;;;;;20631093;28;20037;-75
2023/02/17 19:58:11;;;;;;;11.87;5.67;;;9.80;99.90;;;;;;20643768;28;20477;-76
2023/02/17 20:08:12;;;;;;;11.38;6.28;;;9.80;99.90;;;;;;20659959;28;20022;-76
2023/02/17 20:18:13;;;;;;;10.00;6.10;;;9.70;99.90;;;;;;20681778;28;20031;-76
2023/02/17 20:28:14;;;;;;;11.60;6.30;;;9.70;99.90;;;;;;20631824;28;20034;-76
2023/02/17 20:38:15;;;;;;;15.53;6.37;;;9.70;99.90;;;;;;20631285;28;20105;-76
2023/02/17 20:48:16;;;;;;;11.87;7.37;;;9.80;99.90;;;;;;20611580;28;20421;-76
2023/02/17 20:58:17;;;;;;;12.47;6.37;;;9.90;99.90;;;;;;20624694;28;20045;-76
2023/02/17 21:08:17;;;;;;;11.57;6.70;;;10.00;99.90;;;;;;20626897;28;20038;-76
2023/02/17 21:18:18;;;;;;;11.93;6.33;;;10.00;99.90;;;;;;20625249;28;20497;-75
2023/02/17 21:28:19;;;;;;;12.77;4.77;;;10.10;99.90;;;;;;20635098;28;20520;-78
2023/02/17 21:38:21;;;;;;;9.10;5.67;;;10.10;99.90;;;;;;20624011;28;20129;-76
2023/02/17 21:48:22;;;;;;;8.13;4.80;;;10.20;99.90;;;;;;20623436;28;20139;-77
2023/02/17 21:58:23;;;;;;;9.57;5.03;;;10.20;99.90;;;;;;20630648;28;20475;-76
2023/02/17 22:08:24;;;;;;;11.43;5.60;;;10.30;99.90;;;;;;20634601;28;20038;-76
2023/02/17 22:18:24;;;;;;;10.57;5.40;;;10.30;99.90;;;;;;20621577;28;20093;-76
2023/02/17 22:28:25;;;;;;;10.77;5.87;;;10.30;99.90;;;;;;20623559;28;20034;-77
2023/02/17 22:38:27;;;;;;;7.83;4.97;;;10.30;99.90;;;;;;20633463;28;20038;-76
2023/02/17 22:48:30;;;;;;;12.93;6.38;;;10.30;99.90;;;;;;20633394;28;20026;-78
2023/02/17 22:58:31;;;;;;;9.43;5.53;;;10.30;99.90;;;;;;20641521;28;20030;-76
2023/02/17 23:08:33;;;;;;;12.60;5.82;;;10.30;99.90;;;;;;20648770;28;20031;-76
2023/02/17 23:18:35;;;;;;;10.57;5.50;;;10.20;99.90;;;;;;20648819;28;20041;-75
2023/02/17 23:28:36;;;;;;;10.18;4.68;;;10.20;99.90;;;;;;20651492;28;20057;-75
2023/02/17 23:38:37;;;;;;;8.87;4.57;;;10.30;99.90;;;;;;20653033;28;20027;-75
2023/02/17 23:48:38;;;;;;;13.10;5.03;;;10.30;99.90;;;;;;20654164;28;20293;-77
2023/02/17 23:58:39;;;;;;;11.63;5.50;;;10.20;99.90;;;;;;20649686;28;20371;-75
